sensor_id;sensor_type;location;lat;lon;timestamp;pressure;altitude;pressure_sealevel;temperature;humidity
55191;BME280;41070;50.360;18.742;2024-02-21T04:09:30;99224.81;;;4.58;100.00
55191;BME280;41070;50.360;18.742;2024-02-21T04:43:24;99193.22;;;4.32;100.00
55191;BME280;41070;50.360;18.742;2024-02-21T05:17:38;99165.15;;;4.30;100.00
55191;BME280;41070;50.360;18.742;2024-02-21T05:26:45;99164.19;;;4.28;100.00
55191;BME280;41070;50.360;18.742;2024-02-21T05:29:12;99164.61;;;4.28;100.00
55191;BME280;41070;50.360;18.742;2024-02-21T05:34:19;99166.82;;;4.29;100.00
55191;BME280;41070;50.360;18.742;2024-02-21T05:36:46;99165.64;;;4.30;100.00
55191;BME280;41070;50.360;18.742;2024-02-21T05:39:13;99166.73;;;4.31;100.00
55191;BME280;41070;50.360;18.742;2024-02-21T05:41:40;99163.14;;;4.31;100.00
55191;BME280;41070;50.360;18.742;2024-02-21T05:44:07;99168.96;;;4.32;100.00
55191;BME280;41070;50.360;18.742;2024-02-21T05:46:33;99168.89;;;4.36;100.00
55191;BME280;41070;50.360;18.742;2024-02-21T05:49:00;99168.61;;;4.38;100.00
55191;BME280;41070;50.360;18.742;2024-02-21T05:51:27;99163.13;;;4.36;100.00
55191;BME280;41070;50.360;18.742;2024-02-21T05:53:53;99159.82;;;4.33;100.00
55191;BME280;41070;50.360;18.742;2024-02-21T05:56:19;99158.48;;;4.31;100.00
55191;BME280;41070;50.360;18.742;2024-02-21T05:58:46;99155.73;;;4.30;100.00
55191;BME280;41070;50.360;18.742;2024-02-21T06:01:12;99157.83;;;4.28;100.00
55191;BME280;41070;50.360;18.742;2024-02-21T06:03:38;99158.05;;;4.27;100.00
55191;BME280;41070;50.360;18.742;2024-02-21T06:06:05;99157.59;;;4.26;100.00
55191;BME280;41070;50.360;18.742;2024-02-21T06:08:31;99155.67;;;4.27;100.00
55191;BME280;41070;50.360;18.742;2024-02-21T06:10:58;99158.64;;;4.27;100.00
55191;BME280;41070;50.360;18.742;2024-02-21T06:13:24;99156.84;;;4.27;100.00
55191;BME280;41070;50.360;18.742;2024-02-21T06:15:53;99157.90;;;4.28;100.00
55191;BME280;41070;50.360;18.742;2024-02-21T06:18:20;99155.63;;;4.30;100.00
55191;BME280;41070;50.360;18.742;2024-02-21T06:20:47;99158.21;;;4.34;100.00
55191;BME280;41070;50.360;18.742;2024-02-21T06:23:15;99159.21;;;4.39;100.00
55191;BME280;41070;50.360;18.742;2024-02-21T06:25:42;99162.27;;;4.39;100.00
55191;BME280;41070;50.360;18.742;2024-02-21T06:28:09;99161.14;;;4.42;100.00
55191;BME280;41070;50.360;18.742;2024-02-21T06:30:35;99159.75;;;4.46;100.00
55191;BME280;41070;50.360;18.742;2024-02-21T06:33:02;99155.80;;;4.47;100.00
55191;BME280;41070;50.360;18.742;2024-02-21T06:35:29;99152.13;;;4.49;100.00
55191;BME280;41070;50.360;18.742;2024-02-21T06:37:55;99148.44;;;4.51;100.00
55191;BME280;41070;50.360;18.742;2024-02-21T06:40:22;99147.88;;;4.53;100.00
55191;BME280;41070;50.360;18.742;2024-02-21T06:42:49;99150.27;;;4.59;100.00
55191;BME280;41070;50.360;18.742;2024-02-21T06:45:16;99147.02;;;4.61;100.00
55191;BME280;41070;50.360;18.742;2024-02-21T06:47:43;99147.99;;;4.63;100.00
55191;BME280;41070;50.360;18.742;2024-02-21T06:50:09;99147.08;;;4.64;100.00
55191;BME280;41070;50.360;18.742;2024-02-21T06:52:36;99143.16;;;4.63;100.00
55191;BME280;41070;50.360;18.742;2024-02-21T06:55:02;99149.53;;;4.63;100.00
55191;BME280;41070;50.360;18.742;2024-02-21T06:57:30;99149.56;;;4.64;100.00
55191;BME280;41070;50.360;18.742;2024-02-21T06:59:56;99156.64;;;4.66;100.00
55191;BME280;41070;50.360;18.742;2024-02-21T07:02:23;99157.35;;;4.68;100.00
55191;BME280;41070;50.360;18.742;2024-02-21T07:04:49;99152.78;;;4.68;100.00
55191;BME280;41070;50.360;18.742;2024-02-21T07:07:15;99146.83;;;4.69;100.00
55191;BME280;41070;50.360;18.742;2024-02-21T07:09:42;99154.16;;;4.69;100.00
55191;BME280;41070;50.360;18.742;2024-02-21T07:12:08;99153.38;;;4.68;100.00
55191;BME280;41070;50.360;18.742;2024-02-21T07:14:36;99152.65;;;4.67;100.00
55191;BME280;41070;50.360;18.742;2024-02-21T07:17:18;99144.54;;;4.66;100.00
55191;BME280;41070;50.360;18.742;2024-02-21T07:19:44;99146.36;;;4.66;100.00
55191;BME280;41070;50.360;18.742;2024-02-21T07:22:10;99149.23;;;4.68;100.00
55191;BME280;41070;50.360;18.742;2024-02-21T07:24:37;99147.99;;;4.73;100.00
55191;BME280;41070;50.360;18.742;2024-02-21T07:27:04;99144.05;;;4.77;100.00
55191;BME280;41070;50.360;18.742;2024-02-21T07:29:30;99139.89;;;4.82;100.00
55191;BME280;41070;50.360;18.742;2024-02-21T07:31:57;99136.49;;;4.85;100.00
55191;BME280;41070;50.360;18.742;2024-02-21T07:34:23;99136.50;;;4.89;100.00
55191;BME280;41070;50.360;18.742;2024-02-21T07:36:52;99133.48;;;4.92;100.00
55191;BME280;41070;50.360;18.742;2024-02-21T07:39:19;99130.45;;;4.99;100.00
55191;BME280;41070;50.360;18.742;2024-02-21T07:41:45;99128.99;;;5.03;100.00
55191;BME280;41070;50.360;18.742;2024-02-21T07:44:12;99128.98;;;5.07;100.00
55191;BME280;41070;50.360;18.742;2024-02-21T07:46:39;99126.14;;;5.14;100.00
55191;BME280;41070;50.360;18.742;2024-02-21T07:49:05;99126.77;;;5.21;100.00
55191;BME280;41070;50.360;18.742;2024-02-21T07:51:31;99120.85;;;5.28;100.00
55191;BME280;41070;50.360;18.742;2024-02-21T07:53:57;99119.27;;;5.36;100.00
55191;BME280;41070;50.360;18.742;2024-02-21T07:56:27;99115.68;;;5.41;100.00
55191;BME280;41070;50.360;18.742;2024-02-21T07:58:53;99112.63;;;5.50;100.00
55191;BME280;41070;50.360;18.742;2024-02-21T08:01:20;99107.38;;;5.56;100.00
55191;BME280;41070;50.360;18.742;2024-02-21T08:03:47;99111.51;;;5.59;100.00
55191;BME280;41070;50.360;18.742;2024-02-21T08:06:13;99111.98;;;5.65;100.00
55191;BME280;41070;50.360;18.742;2024-02-21T08:08:40;99108.88;;;5.66;100.00
55191;BME280;41070;50.360;18.742;2024-02-21T08:11:07;99107.66;;;5.68;100.00
55191;BME280;41070;50.360;18.742;2024-02-21T08:13:33;99107.02;;;5.68;100.00
55191;BME280;41070;50.360;18.742;2024-02-21T08:15:59;99105.09;;;5.71;100.00
55191;BME280;41070;50.360;18.742;2024-02-21T08:18:25;99094.93;;;5.72;100.00
55191;BME280;41070;50.360;18.742;2024-02-21T08:20:52;99089.39;;;5.74;100.00
55191;BME280;41070;50.360;18.742;2024-02-21T08:23:19;99085.61;;;5.77;100.00
55191;BME280;41070;50.360;18.742;2024-02-21T08:25:45;99082.23;;;5.81;100.00
55191;BME280;41070;50.360;18.742;2024-02-21T08:28:13;99084.23;;;5.84;100.00
55191;BME280;41070;50.360;18.742;2024-02-21T08:30:39;99081.61;;;5.87;100.00
55191;BME280;41070;50.360;18.742;2024-02-21T08:33:10;99080.41;;;5.89;100.00
55191;BME280;41070;50.360;18.742;2024-02-21T08:35:36;99078.89;;;5.87;100.00
55191;BME280;41070;50.360;18.742;2024-02-21T08:38:03;99068.48;;;5.88;100.00
55191;BME280;41070;50.360;18.742;2024-02-21T08:40:29;99071.38;;;5.95;100.00
55191;BME280;41070;50.360;18.742;2024-02-21T08:42:55;99063.95;;;6.02;100.00
55191;BME280;41070;50.360;18.742;2024-02-21T08:45:22;99057.74;;;6.11;100.00
55191;BME280;41070;50.360;18.742;2024-02-21T08:47:48;99055.67;;;6.22;100.00
55191;BME280;41070;50.360;18.742;2024-02-21T08:50:14;99062.05;;;6.31;100.00
55191;BME280;41070;50.360;18.742;2024-02-21T08:52:41;99061.67;;;6.39;100.00
55191;BME280;41070;50.360;18.742;2024-02-21T08:55:08;99055.52;;;6.43;100.00
55191;BME280;41070;50.360;18.742;2024-02-21T08:57:34;99050.13;;;6.48;100.00
55191;BME280;41070;50.360;18.742;2024-02-21T09:00:03;99053.04;;;6.53;100.00
55191;BME280;41070;50.360;18.742;2024-02-21T09:02:41;99055.11;;;6.66;100.00
55191;BME280;41070;50.360;18.742;2024-02-21T09:05:09;99051.25;;;6.80;100.00
55191;BME280;41070;50.360;18.742;2024-02-21T09:07:35;99051.69;;;6.95;100.00
55191;BME280;41070;50.360;18.742;2024-02-21T09:10:02;99051.74;;;7.08;100.00
55191;BME280;41070;50.360;18.742;2024-02-21T09:12:28;99052.61;;;7.23;100.00
55191;BME280;41070;50.360;18.742;2024-02-21T09:14:55;99051.11;;;7.35;100.00
55191;BME280;41070;50.360;18.742;2024-02-21T09:17:22;99055.71;;;7.44;100.00
55191;BME280;41070;50.360;18.742;2024-02-21T09:19:48;99057.91;;;7.48;100.00
55191;BME280;41070;50.360;18.742;2024-02-21T09:22:15;99054.73;;;7.49;100.00
55191;BME280;41070;50.360;18.742;2024-02-21T09:24:41;99060.25;;;7.51;100.00
55191;BME280;41070;50.360;18.742;2024-02-21T09:27:08;99058.42;;;7.53;100.00
55191;BME280;41070;50.360;18.742;2024-02-21T09:29:34;99059.06;;;7.54;100.00
55191;BME280;41070;50.360;18.742;2024-02-21T09:32:02;99064.39;;;7.57;100.00
55191;BME280;41070;50.360;18.742;2024-02-21T09:34:29;99063.08;;;7.58;100.00
55191;BME280;41070;50.360;18.742;2024-02-21T09:37:05;99062.76;;;7.58;100.00
55191;BME280;41070;50.360;18.742;2024-02-21T09:39:31;99062.79;;;7.59;100.00
55191;BME280;41070;50.360;18.742;2024-02-21T09:41:59;99062.47;;;7.59;100.00
55191;BME280;41070;50.360;18.742;2024-02-21T09:44:29;99058.73;;;7.65;100.00
55191;BME280;41070;50.360;18.742;2024-02-21T09:47:03;99063.52;;;7.66;100.00
55191;BME280;41070;50.360;18.742;2024-02-21T09:49:31;99059.80;;;7.66;100.00
55191;BME280;41070;50.360;18.742;2024-02-21T09:52:03;99059.72;;;7.69;100.00
55191;BME280;41070;50.360;18.742;2024-02-21T09:54:30;99056.52;;;7.77;100.00
55191;BME280;41070;50.360;18.742;2024-02-21T09:56:57;99057.13;;;7.83;100.00
55191;BME280;41070;50.360;18.742;2024-02-21T09:59:23;99057.91;;;7.91;100.00
55191;BME280;41070;50.360;18.742;2024-02-21T10:01:50;99058.17;;;7.97;100.00
55191;BME280;41070;50.360;18.742;2024-02-21T10:04:17;99058.30;;;8.03;100.00
55191;BME280;41070;50.360;18.742;2024-02-21T10:06:44;99061.74;;;8.09;100.00
55191;BME280;41070;50.360;18.742;2024-02-21T10:09:41;99058.71;;;8.14;100.00
55191;BME280;41070;50.360;18.742;2024-02-21T10:12:11;99060.98;;;8.19;100.00
55191;BME280;41070;50.360;18.742;2024-02-21T10:14:38;99057.89;;;8.23;100.00
55191;BME280;41070;50.360;18.742;2024-02-21T10:17:04;99057.03;;;8.28;100.00
55191;BME280;41070;50.360;18.742;2024-02-21T10:19:35;99051.92;;;8.30;100.00
55191;BME280;41070;50.360;18.742;2024-02-21T10:22:03;99050.60;;;8.33;100.00
55191;BME280;41070;50.360;18.742;2024-02-21T10:24:33;99048.65;;;8.36;100.00
55191;BME280;41070;50.360;18.742;2024-02-21T10:27:04;99047.08;;;8.40;100.00
55191;BME280;41070;50.360;18.742;2024-02-21T10:29:31;99046.29;;;8.45;100.00
55191;BME280;41070;50.360;18.742;2024-02-21T10:32:05;99044.67;;;8.49;99.92
55191;BME280;41070;50.360;18.742;2024-02-21T10:34:32;99041.95;;;8.49;99.54
55191;BME280;41070;50.360;18.742;2024-02-21T10:37:01;99039.06;;;8.49;99.20
55191;BME280;41070;50.360;18.742;2024-02-21T10:39:29;99038.17;;;8.54;99.38
55191;BME280;41070;50.360;18.742;2024-02-21T10:41:59;99037.27;;;8.57;99.37
55191;BME280;41070;50.360;18.742;2024-02-21T10:44:28;99037.10;;;8.57;98.85
55191;BME280;41070;50.360;18.742;2024-02-21T10:46:55;99037.39;;;8.55;98.89
55191;BME280;41070;50.360;18.742;2024-02-21T10:49:23;99031.64;;;8.55;98.38
55191;BME280;41070;50.360;18.742;2024-02-21T10:51:55;99030.05;;;8.49;97.99
55191;BME280;41070;50.360;18.742;2024-02-21T10:57:08;99028.09;;;8.44;97.74
55191;BME280;41070;50.360;18.742;2024-02-21T10:59:37;99022.56;;;8.40;97.74
55191;BME280;41070;50.360;18.742;2024-02-21T11:02:04;99018.95;;;8.36;97.56
55191;BME280;41070;50.360;18.742;2024-02-21T11:04:32;99011.70;;;8.34;97.65
55191;BME280;41070;50.360;18.742;2024-02-21T11:07:03;99006.34;;;8.33;97.70
55191;BME280;41070;50.360;18.742;2024-02-21T11:09:31;99000.48;;;8.34;97.50
55191;BME280;41070;50.360;18.742;2024-02-21T11:11:58;98996.96;;;8.36;97.40
55191;BME280;41070;50.360;18.742;2024-02-21T11:14:27;98990.50;;;8.38;97.16
55191;BME280;41070;50.360;18.742;2024-02-21T11:16:54;98987.02;;;8.39;96.97
55191;BME280;41070;50.360;18.742;2024-02-21T11:19:22;98980.98;;;8.38;96.84
55191;BME280;41070;50.360;18.742;2024-02-21T11:21:49;98981.91;;;8.37;96.93
55191;BME280;41070;50.360;18.742;2024-02-21T11:24:29;98981.59;;;8.33;96.72
55191;BME280;41070;50.360;18.742;2024-02-21T11:27:20;98982.74;;;8.29;96.67
55191;BME280;41070;50.360;18.742;2024-02-21T11:29:48;98981.08;;;8.21;96.33
55191;BME280;41070;50.360;18.742;2024-02-21T11:32:20;98981.45;;;8.11;96.21
55191;BME280;41070;50.360;18.742;2024-02-21T11:35:00;98979.61;;;8.02;96.30
55191;BME280;41070;50.360;18.742;2024-02-21T11:37:28;98978.70;;;7.97;96.56
55191;BME280;41070;50.360;18.742;2024-02-21T11:39:56;98979.14;;;7.95;96.67
55191;BME280;41070;50.360;18.742;2024-02-21T11:42:25;98976.14;;;7.92;96.75
55191;BME280;41070;50.360;18.742;2024-02-21T11:44:51;98969.23;;;7.93;96.83
55191;BME280;41070;50.360;18.742;2024-02-21T11:47:18;98972.65;;;7.93;96.78
55191;BME280;41070;50.360;18.742;2024-02-21T11:49:46;98967.61;;;7.90;96.79
55191;BME280;41070;50.360;18.742;2024-02-21T11:52:15;98968.23;;;7.87;96.78
55191;BME280;41070;50.360;18.742;2024-02-21T11:54:42;98967.45;;;7.81;96.92
55191;BME280;41070;50.360;18.742;2024-02-21T11:57:10;98967.11;;;7.72;96.69
55191;BME280;41070;50.360;18.742;2024-02-21T11:59:45;98963.00;;;7.60;96.78
55191;BME280;41070;50.360;18.742;2024-02-21T12:02:12;98961.02;;;7.51;97.06
55191;BME280;41070;50.360;18.742;2024-02-21T12:04:39;98962.99;;;7.46;97.27
55191;BME280;41070;50.360;18.742;2024-02-21T12:07:06;98962.77;;;7.42;97.40
55191;BME280;41070;50.360;18.742;2024-02-21T12:09:34;98960.20;;;7.39;97.46
55191;BME280;41070;50.360;18.742;2024-02-21T12:12:02;98960.17;;;7.39;97.69
55191;BME280;41070;50.360;18.742;2024-02-21T12:14:30;98959.33;;;7.40;97.96
55191;BME280;41070;50.360;18.742;2024-02-21T12:16:56;98956.69;;;7.43;98.22
55191;BME280;41070;50.360;18.742;2024-02-21T12:19:23;98956.70;;;7.48;98.43
55191;BME280;41070;50.360;18.742;2024-02-21T12:21:50;98951.39;;;7.52;98.15
55191;BME280;41070;50.360;18.742;2024-02-21T12:24:22;98948.66;;;7.54;98.19
55191;BME280;41070;50.360;18.742;2024-02-21T12:26:49;98945.45;;;7.54;97.82
55191;BME280;41070;50.360;18.742;2024-02-21T12:29:16;98945.06;;;7.56;98.09
55191;BME280;41070;50.360;18.742;2024-02-21T12:31:42;98946.56;;;7.60;98.22
55191;BME280;41070;50.360;18.742;2024-02-21T12:34:09;98942.42;;;7.64;98.47
55191;BME280;41070;50.360;18.742;2024-02-21T12:36:36;98944.08;;;7.69;98.49
55191;BME280;41070;50.360;18.742;2024-02-21T12:39:07;98943.02;;;7.71;98.49
55191;BME280;41070;50.360;18.742;2024-02-21T12:41:35;98941.13;;;7.73;98.52
55191;BME280;41070;50.360;18.742;2024-02-21T12:44:04;98937.50;;;7.75;98.28
55191;BME280;41070;50.360;18.742;2024-02-21T12:46:35;98933.39;;;7.77;98.32
55191;BME280;41070;50.360;18.742;2024-02-21T12:49:02;98932.46;;;7.80;98.24
55191;BME280;41070;50.360;18.742;2024-02-21T12:51:32;98925.92;;;7.84;98.24
55191;BME280;41070;50.360;18.742;2024-02-21T12:53:59;98920.13;;;7.87;98.08
55191;BME280;41070;50.360;18.742;2024-02-21T12:56:54;98913.48;;;7.90;98.06
55191;BME280;41070;50.360;18.742;2024-02-21T12:59:21;98905.00;;;7.92;97.82
55191;BME280;41070;50.360;18.742;2024-02-21T13:01:48;98897.42;;;7.90;97.42
55191;BME280;41070;50.360;18.742;2024-02-21T13:04:14;98895.78;;;7.87;97.46
55191;BME280;41070;50.360;18.742;2024-02-21T13:06:41;98889.45;;;7.87;97.75
55191;BME280;41070;50.360;18.742;2024-02-21T13:09:07;98883.15;;;7.87;97.99
55191;BME280;41070;50.360;18.742;2024-02-21T13:11:36;98879.93;;;7.91;98.02
55191;BME280;41070;50.360;18.742;2024-02-21T13:14:03;98876.92;;;7.92;98.12
55191;BME280;41070;50.360;18.742;2024-02-21T13:16:29;98879.14;;;7.94;98.24
55191;BME280;41070;50.360;18.742;2024-02-21T13:18:56;98873.59;;;7.98;98.63
55191;BME280;41070;50.360;18.742;2024-02-21T13:21:22;98873.71;;;8.00;98.34
55191;BME280;41070;50.360;18.742;2024-02-21T13:23:48;98870.67;;;7.99;98.20
55191;BME280;41070;50.360;18.742;2024-02-21T13:26:15;98867.86;;;7.95;98.31
55191;BME280;41070;50.360;18.742;2024-02-21T13:28:41;98864.08;;;7.94;98.24
55191;BME280;41070;50.360;18.742;2024-02-21T13:31:10;98865.80;;;7.89;98.49
55191;BME280;41070;50.360;18.742;2024-02-21T13:33:36;98862.80;;;7.87;98.32
55191;BME280;41070;50.360;18.742;2024-02-21T13:36:03;98861.77;;;7.82;98.36
55191;BME280;41070;50.360;18.742;2024-02-21T13:38:29;98863.07;;;7.77;98.36
55191;BME280;41070;50.360;18.742;2024-02-21T13:40:56;98864.68;;;7.72;98.32
55191;BME280;41070;50.360;18.742;2024-02-21T13:43:22;98865.50;;;7.66;98.33
55191;BME280;41070;50.360;18.742;2024-02-21T13:45:56;98864.19;;;7.60;98.47
55191;BME280;41070;50.360;18.742;2024-02-21T13:48:23;98862.31;;;7.57;98.42
55191;BME280;41070;50.360;18.742;2024-02-21T13:50:50;98856.68;;;7.55;98.50
55191;BME280;41070;50.360;18.742;2024-02-21T13:53:16;98849.62;;;7.56;98.61
55191;BME280;41070;50.360;18.742;2024-02-21T13:55:44;98843.36;;;7.57;98.42
55191;BME280;41070;50.360;18.742;2024-02-21T13:58:11;98839.13;;;7.58;98.53
55191;BME280;41070;50.360;18.742;2024-02-21T14:00:37;98833.33;;;7.58;98.38
55191;BME280;41070;50.360;18.742;2024-02-21T14:03:04;98827.03;;;7.56;98.61
55191;BME280;41070;50.360;18.742;2024-02-21T14:05:30;98824.41;;;7.57;98.52
55191;BME280;41070;50.360;18.742;2024-02-21T14:07:57;98812.40;;;7.59;98.78
55191;BME280;41070;50.360;18.742;2024-02-21T14:10:23;98809.54;;;7.58;98.95
55191;BME280;41070;50.360;18.742;2024-02-21T14:12:50;98810.63;;;7.53;99.14
55191;BME280;41070;50.360;18.742;2024-02-21T14:15:16;98804.84;;;7.53;99.33
55191;BME280;41070;50.360;18.742;2024-02-21T14:17:42;98795.45;;;7.50;99.29
55191;BME280;41070;50.360;18.742;2024-02-21T14:20:09;98794.06;;;7.48;99.43
55191;BME280;41070;50.360;18.742;2024-02-21T14:22:36;98788.11;;;7.51;99.63
55191;BME280;41070;50.360;18.742;2024-02-21T14:25:04;98786.11;;;7.62;99.57
55191;BME280;41070;50.360;18.742;2024-02-21T14:27:31;98776.80;;;7.73;99.83
55191;BME280;41070;50.360;18.742;2024-02-21T14:29:58;98778.39;;;7.76;99.62
55191;BME280;41070;50.360;18.742;2024-02-21T14:32:25;98778.40;;;7.74;99.36
55191;BME280;41070;50.360;18.742;2024-02-21T14:34:51;98780.92;;;7.72;99.22
55191;BME280;41070;50.360;18.742;2024-02-21T14:37:17;98778.17;;;7.67;99.15
55191;BME280;41070;50.360;18.742;2024-02-21T14:39:43;98776.25;;;7.61;99.23
55191;BME280;41070;50.360;18.742;2024-02-21T14:42:10;98772.39;;;7.52;99.20
55191;BME280;41070;50.360;18.742;2024-02-21T14:44:36;98771.73;;;7.49;99.35
55191;BME280;41070;50.360;18.742;2024-02-21T14:47:03;98768.88;;;7.44;99.11
55191;BME280;41070;50.360;18.742;2024-02-21T14:49:30;98769.54;;;7.41;99.24
55191;BME280;41070;50.360;18.742;2024-02-21T14:51:58;98766.55;;;7.40;99.05
55191;BME280;41070;50.360;18.742;2024-02-21T14:54:25;98771.35;;;7.36;99.06
55191;BME280;41070;50.360;18.742;2024-02-21T14:56:52;98770.79;;;7.32;98.93
55191;BME280;41070;50.360;18.742;2024-02-21T14:59:31;98773.49;;;7.29;98.71
55191;BME280;41070;50.360;18.742;2024-02-21T15:02:01;98767.17;;;7.27;98.88
55191;BME280;41070;50.360;18.742;2024-02-21T15:04:27;98764.29;;;7.27;98.90
55191;BME280;41070;50.360;18.742;2024-02-21T15:06:54;98765.38;;;7.26;98.81
55191;BME280;41070;50.360;18.742;2024-02-21T15:09:20;98764.91;;;7.24;98.60
55191;BME280;41070;50.360;18.742;2024-02-21T15:11:46;98763.23;;;7.20;98.49
55191;BME280;41070;50.360;18.742;2024-02-21T15:14:13;98760.45;;;7.17;98.74
55191;BME280;41070;50.360;18.742;2024-02-21T15:16:39;98759.70;;;7.16;98.66
55191;BME280;41070;50.360;18.742;2024-02-21T15:19:06;98759.13;;;7.15;98.55
55191;BME280;41070;50.360;18.742;2024-02-21T15:21:33;98758.35;;;7.16;98.64
55191;BME280;41070;50.360;18.742;2024-02-21T15:24:00;98751.45;;;7.22;98.54
55191;BME280;41070;50.360;18.742;2024-02-21T15:26:27;98747.45;;;7.26;98.48
55191;BME280;41070;50.360;18.742;2024-02-21T15:28:55;98747.72;;;7.29;98.49
55191;BME280;41070;50.360;18.742;2024-02-21T15:31:23;98737.73;;;7.30;98.47
55191;BME280;41070;50.360;18.742;2024-02-21T15:33:52;98735.79;;;7.29;98.52
55191;BME280;41070;50.360;18.742;2024-02-21T15:36:19;98735.77;;;7.23;98.31
55191;BME280;41070;50.360;18.742;2024-02-21T15:38:46;98732.75;;;7.17;98.41
55191;BME280;41070;50.360;18.742;2024-02-21T15:41:12;98728.82;;;7.10;98.24
55191;BME280;41070;50.360;18.742;2024-02-21T15:43:54;98732.50;;;7.04;98.49
55191;BME280;41070;50.360;18.742;2024-02-21T15:46:26;98729.79;;;6.97;98.71
55191;BME280;41070;50.360;18.742;2024-02-21T15:48:52;98724.52;;;6.93;98.65
55191;BME280;41070;50.360;18.742;2024-02-21T15:51:20;98720.50;;;6.86;98.62
55191;BME280;41070;50.360;18.742;2024-02-21T15:53:47;98720.94;;;6.79;98.80
55191;BME280;41070;50.360;18.742;2024-02-21T15:56:16;98716.13;;;6.73;98.80
55191;BME280;41070;50.360;18.742;2024-02-21T15:58:42;98714.02;;;6.69;98.98
55191;BME280;41070;50.360;18.742;2024-02-21T16:01:08;98715.55;;;6.65;99.32
55191;BME280;41070;50.360;18.742;2024-02-21T16:03:38;98717.98;;;6.58;99.29
55191;BME280;41070;50.360;18.742;2024-02-21T16:06:04;98718.25;;;6.54;99.44
55191;BME280;41070;50.360;18.742;2024-02-21T16:08:34;98722.24;;;6.51;99.42
55191;BME280;41070;50.360;18.742;2024-02-21T16:11:05;98728.51;;;6.48;99.59
55191;BME280;41070;50.360;18.742;2024-02-21T16:13:31;98726.44;;;6.47;99.59
55191;BME280;41070;50.360;18.742;2024-02-21T16:15:58;98726.50;;;6.44;99.56
55191;BME280;41070;50.360;18.742;2024-02-21T16:18:24;98721.74;;;6.42;99.56
55191;BME280;41070;50.360;18.742;2024-02-21T16:20:54;98722.73;;;6.39;99.77
55191;BME280;41070;50.360;18.742;2024-02-21T16:23:21;98726.48;;;6.36;99.61
55191;BME280;41070;50.360;18.742;2024-02-21T16:25:48;98725.39;;;6.34;99.80
55191;BME280;41070;50.360;18.742;2024-02-21T16:28:14;98716.19;;;6.30;99.74
55191;BME280;41070;50.360;18.742;2024-02-21T16:30:42;98710.70;;;6.26;99.69
55191;BME280;41070;50.360;18.742;2024-02-21T16:33:08;98708.90;;;6.23;99.70
55191;BME280;41070;50.360;18.742;2024-02-21T16:35:35;98708.98;;;6.20;99.77
55191;BME280;41070;50.360;18.742;2024-02-21T16:38:03;98704.30;;;6.17;99.79
55191;BME280;41070;50.360;18.742;2024-02-21T16:40:30;98701.23;;;6.13;99.72
55191;BME280;41070;50.360;18.742;2024-02-21T16:42:59;98700.86;;;6.10;99.94
55191;BME280;41070;50.360;18.742;2024-02-21T16:45:28;98702.48;;;6.07;99.93
55191;BME280;41070;50.360;18.742;2024-02-21T16:47:55;98701.80;;;6.05;99.88
55191;BME280;41070;50.360;18.742;2024-02-21T16:50:21;98704.50;;;6.03;99.98
55191;BME280;41070;50.360;18.742;2024-02-21T16:52:48;98704.40;;;6.01;99.98
55191;BME280;41070;50.360;18.742;2024-02-21T16:55:16;98707.59;;;6.01;99.98
55191;BME280;41070;50.360;18.742;2024-02-21T16:57:43;98709.34;;;5.99;100.00
55191;BME280;41070;50.360;18.742;2024-02-21T17:00:09;98712.45;;;5.98;99.93
55191;BME280;41070;50.360;18.742;2024-02-21T17:02:40;98708.33;;;5.96;99.95
55191;BME280;41070;50.360;18.742;2024-02-21T17:05:09;98710.19;;;5.93;99.96
55191;BME280;41070;50.360;18.742;2024-02-21T17:07:51;98706.44;;;5.90;99.89
55191;BME280;41070;50.360;18.742;2024-02-21T17:10:18;98706.65;;;5.86;99.88
55191;BME280;41070;50.360;18.742;2024-02-21T17:12:44;98705.27;;;5.84;99.84
55191;BME280;41070;50.360;18.742;2024-02-21T17:15:11;98707.48;;;5.83;100.00
55191;BME280;41070;50.360;18.742;2024-02-21T17:17:39;98710.37;;;5.80;99.84
55191;BME280;41070;50.360;18.742;2024-02-21T17:20:07;98710.84;;;5.79;99.88
55191;BME280;41070;50.360;18.742;2024-02-21T17:22:53;98708.74;;;5.78;100.00
55191;BME280;41070;50.360;18.742;2024-02-21T17:25:27;98704.92;;;5.77;99.93
55191;BME280;41070;50.360;18.742;2024-02-21T17:27:54;98701.11;;;5.75;99.73
55191;BME280;41070;50.360;18.742;2024-02-21T17:30:23;98693.56;;;5.73;99.73
55191;BME280;41070;50.360;18.742;2024-02-21T17:32:49;98693.16;;;5.70;99.88
55191;BME280;41070;50.360;18.742;2024-02-21T17:35:16;98690.88;;;5.68;99.76
55191;BME280;41070;50.360;18.742;2024-02-21T17:40:35;98687.67;;;5.65;99.62
55191;BME280;41070;50.360;18.742;2024-02-21T17:43:01;98689.79;;;5.63;99.82
55191;BME280;41070;50.360;18.742;2024-02-21T17:45:49;98686.69;;;5.62;99.90
55191;BME280;41070;50.360;18.742;2024-02-21T17:48:16;98686.70;;;5.59;99.84
55191;BME280;41070;50.360;18.742;2024-02-21T17:50:43;98683.52;;;5.58;99.79
55191;BME280;41070;50.360;18.742;2024-02-21T17:53:32;98686.70;;;5.56;99.82
55191;BME280;41070;50.360;18.742;2024-02-21T17:56:00;98683.24;;;5.55;99.83
55191;BME280;41070;50.360;18.742;2024-02-21T17:58:26;98684.66;;;5.53;99.80
55191;BME280;41070;50.360;18.742;2024-02-21T18:00:52;98681.59;;;5.50;99.68
55191;BME280;41070;50.360;18.742;2024-02-21T18:03:23;98675.23;;;5.47;99.79
55191;BME280;41070;50.360;18.742;2024-02-21T18:06:06;98675.38;;;5.44;99.95
55191;BME280;41070;50.360;18.742;2024-02-21T18:08:32;98667.97;;;5.41;100.00
55191;BME280;41070;50.360;18.742;2024-02-21T18:10:59;98669.36;;;5.37;99.88
55191;BME280;41070;50.360;18.742;2024-02-21T18:13:34;98665.98;;;5.37;99.97
55191;BME280;41070;50.360;18.742;2024-02-21T18:16:03;98663.98;;;5.36;99.97
55191;BME280;41070;50.360;18.742;2024-02-21T18:18:31;98662.04;;;5.35;99.98
55191;BME280;41070;50.360;18.742;2024-02-21T18:20:57;98662.11;;;5.31;100.00
55191;BME280;41070;50.360;18.742;2024-02-21T18:23:24;98657.30;;;5.31;100.00
55191;BME280;41070;50.360;18.742;2024-02-21T18:26:12;98650.50;;;5.29;100.00